PWSweather.com
Personal Weather Stations
Station Observations
LW1DRJ
MorenoAR 17441

MorenoAR 17441

Lat: -34.6340099, Lon: -58.791382

Elevation: 19

Station Type: Fine Offset

http://www.lw1drj.com.ar/clima

High Low Average
Temperature 81.5°F27.5°C 61.0°F16.1°C 69.1°F20.6°C
Dew Point 65.4°F18.6°C 29.4°F-1.4°C 51.7°F10.9°C
Winds 9.2 mph 14.8 kmh Calm Calm 3.0 mph SSE4.8 kmh SSE
Wind Gusts 16.8 mph27.0 kmh 1.6 mph2.6 kmh 8.0 mph12.9 kmh
Humidity 97% 15% 63%
Pressure 30.00 in1015.9 mb 29.64 in1003.7 mb -
Precipitation 0.00 in0.0 mm - -
Hour Temp Dew Point Humidity Winds Wind Gusts Pressure Precip Precip Rate Daily Precip Total
12:08 AM 68.4°F20.2°C 64.7°F18.2°C 88% 6.9 mph S11.1 kmh S 11.4 mph18.3 kmh 29.64 in1003.7 mb 0.00 in0.0 mm 0.00 in0.0 mm 0.00 in0.0 mm
12:18 AM 67.6°F19.8°C 64.6°F18.1°C 90% 3.8 mph ESE6.1 kmh ESE 9.8 mph15.8 kmh 29.65 in1004.1 mb 0.00 in0.0 mm 0.00 in0.0 mm 0.00 in0.0 mm
12:28 AM 67.8°F19.9°C 65.4°F18.6°C 92% 3.8 mph S6.1 kmh S 6.9 mph11.1 kmh 29.66 in1004.4 mb 0.00 in0.0 mm 0.00 in0.0 mm 0.00 in0.0 mm
12:38 AM 67.3°F19.6°C 64.9°F18.3°C 92% 4.5 mph SE7.2 kmh SE 9.8 mph15.8 kmh 29.67 in1004.7 mb 0.00 in0.0 mm 0.00 in0.0 mm 0.00 in0.0 mm
12:48 AM 67.5°F19.7°C 65.4°F18.6°C 93% 1.6 mph NE2.6 kmh NE 9.8 mph15.8 kmh 29.70 in1005.8 mb 0.00 in0.0 mm 0.00 in0.0 mm 0.00 in0.0 mm
12:58 AM 67.8°F19.9°C 65.4°F18.6°C 92% 2.2 mph SE3.5 kmh SE 3.8 mph6.1 kmh 29.69 in1005.4 mb 0.00 in0.0 mm 0.00 in0.0 mm 0.00 in0.0 mm
01:08 AM 67.8°F19.9°C 64.5°F18.1°C 89% 2.2 mph E3.5 kmh E 4.5 mph7.2 kmh 29.69 in1005.4 mb 0.00 in0.0 mm 0.00 in0.0 mm 0.00 in0.0 mm
01:18 AM 67.8°F19.9°C 64.1°F17.8°C 88% 3.8 mph SE6.1 kmh SE 6.0 mph9.7 kmh 29.70 in1005.8 mb 0.00 in0.0 mm 0.00 in0.0 mm 0.00 in0.0 mm
01:28 AM 67.3°F19.6°C 62.3°F16.8°C 84% 4.5 mph S7.2 kmh S 6.9 mph11.1 kmh 29.70 in1005.8 mb 0.00 in0.0 mm 0.00 in0.0 mm 0.00 in0.0 mm
01:38 AM 67.5°F19.7°C 61.8°F16.6°C 82% 2.2 mph SE3.5 kmh SE 6.9 mph11.1 kmh 29.68 in1005.1 mb 0.00 in0.0 mm 0.00 in0.0 mm 0.00 in0.0 mm
01:48 AM 67.1°F19.5°C 62.1°F16.7°C 84% 3.1 mph S5.0 kmh S 5.4 mph8.7 kmh 29.70 in1005.8 mb 0.00 in0.0 mm 0.00 in0.0 mm 0.00 in0.0 mm
01:58 AM 66.7°F19.3°C 62.1°F16.7°C 85% 2.2 mph E3.5 kmh E 5.4 mph8.7 kmh 29.70 in1005.8 mb 0.00 in0.0 mm 0.00 in0.0 mm 0.00 in0.0 mm
02:08 AM 67.1°F19.5°C 62.8°F17.1°C 86% 2.2 mph SW3.5 kmh SW 5.4 mph8.7 kmh 29.70 in1005.8 mb 0.00 in0.0 mm 0.00 in0.0 mm 0.00 in0.0 mm
02:18 AM 66.7°F19.3°C 62.4°F16.9°C 86% 2.2 mph S3.5 kmh S 5.4 mph8.7 kmh 29.70 in1005.8 mb 0.00 in0.0 mm 0.00 in0.0 mm 0.00 in0.0 mm
02:28 AM 66.6°F19.2°C 62.2°F16.8°C 86% 2.2 mph SE3.5 kmh SE 4.5 mph7.2 kmh 29.69 in1005.4 mb 0.00 in0.0 mm 0.00 in0.0 mm 0.00 in0.0 mm
02:38 AM 66.4°F19.1°C 61.4°F16.3°C 84% 4.5 mph SSE7.2 kmh SSE 8.3 mph13.4 kmh 29.68 in1005.1 mb 0.00 in0.0 mm 0.00 in0.0 mm 0.00 in0.0 mm
02:48 AM 66.0°F18.9°C 60.4°F15.8°C 82% 4.5 mph SE7.2 kmh SE 8.3 mph13.4 kmh 29.68 in1005.1 mb 0.00 in0.0 mm 0.00 in0.0 mm 0.00 in0.0 mm
02:58 AM 66.2°F19.0°C 60.5°F15.8°C 82% 2.2 mph E3.5 kmh E 6.0 mph9.7 kmh 29.68 in1005.1 mb 0.00 in0.0 mm 0.00 in0.0 mm 0.00 in0.0 mm
03:08 AM 65.7°F18.7°C 60.0°F15.6°C 82% 4.5 mph S7.2 kmh S 9.2 mph14.8 kmh 29.69 in1005.4 mb 0.00 in0.0 mm 0.00 in0.0 mm 0.00 in0.0 mm
03:18 AM 65.1°F18.4°C 59.5°F15.3°C 82% 0.7 mph SW1.1 kmh SW 9.2 mph14.8 kmh 29.68 in1005.1 mb 0.00 in0.0 mm 0.00 in0.0 mm 0.00 in0.0 mm
03:28 AM 65.8°F18.8°C 60.2°F15.7°C 82% 1.6 mph W2.6 kmh W 3.8 mph6.1 kmh 29.68 in1005.1 mb 0.00 in0.0 mm 0.00 in0.0 mm 0.00 in0.0 mm
03:38 AM 65.3°F18.5°C 59.3°F15.2°C 81% 3.1 mph S5.0 kmh S 4.5 mph7.2 kmh 29.69 in1005.4 mb 0.00 in0.0 mm 0.00 in0.0 mm 0.00 in0.0 mm
03:48 AM 65.8°F18.8°C 59.8°F15.4°C 81% 0.7 mph SW1.1 kmh SW 4.5 mph7.2 kmh 29.68 in1005.1 mb 0.00 in0.0 mm 0.00 in0.0 mm 0.00 in0.0 mm
03:58 AM 64.8°F18.2°C 58.4°F14.7°C 80% 3.8 mph SE6.1 kmh SE 6.9 mph11.1 kmh 29.68 in1005.1 mb 0.00 in0.0 mm 0.00 in0.0 mm 0.00 in0.0 mm
04:08 AM 64.8°F18.2°C 58.4°F14.7°C 80% 1.6 mph S2.6 kmh S 6.9 mph11.1 kmh 29.70 in1005.8 mb 0.00 in0.0 mm 0.00 in0.0 mm 0.00 in0.0 mm
04:18 AM 65.1°F18.4°C 59.1°F15.1°C 81% 0.7 mph SE1.1 kmh SE 4.5 mph7.2 kmh 29.71 in1006.1 mb 0.00 in0.0 mm 0.00 in0.0 mm 0.00 in0.0 mm
04:28 AM 64.2°F17.9°C 58.6°F14.8°C 82% 1.6 mph S2.6 kmh S 3.8 mph6.1 kmh 29.70 in1005.8 mb 0.00 in0.0 mm 0.00 in0.0 mm 0.00 in0.0 mm
04:38 AM 64.6°F18.1°C 59.3°F15.2°C 83% Calm Calm 3.8 mph6.1 kmh 29.70 in1005.8 mb 0.00 in0.0 mm 0.00 in0.0 mm 0.00 in0.0 mm
04:48 AM 63.9°F17.7°C 59.3°F15.2°C 85% Calm Calm 1.6 mph2.6 kmh 29.72 in1006.4 mb 0.00 in0.0 mm 0.00 in0.0 mm 0.00 in0.0 mm
04:58 AM 63.9°F17.7°C 59.6°F15.3°C 86% 0.7 mph S1.1 kmh S 2.2 mph3.5 kmh 29.71 in1006.1 mb 0.00 in0.0 mm 0.00 in0.0 mm 0.00 in0.0 mm
05:08 AM 63.0°F17.2°C 59.0°F15.0°C 87% Calm Calm 2.2 mph3.5 kmh 29.72 in1006.4 mb 0.00 in0.0 mm 0.00 in0.0 mm 0.00 in0.0 mm
05:18 AM 62.8°F17.1°C 59.2°F15.1°C 88% 0.7 mph S1.1 kmh S 1.6 mph2.6 kmh 29.73 in1006.8 mb 0.00 in0.0 mm 0.00 in0.0 mm 0.00 in0.0 mm
05:28 AM 63.0°F17.2°C 59.7°F15.4°C 89% 1.6 mph E2.6 kmh E 3.1 mph5.0 kmh 29.72 in1006.4 mb 0.00 in0.0 mm 0.00 in0.0 mm 0.00 in0.0 mm
05:38 AM 63.0°F17.2°C 59.7°F15.4°C 89% 1.6 mph SW2.6 kmh SW 3.1 mph5.0 kmh 29.74 in1007.1 mb 0.00 in0.0 mm 0.00 in0.0 mm 0.00 in0.0 mm
05:48 AM 62.8°F17.1°C 59.5°F15.3°C 89% 1.6 mph S2.6 kmh S 2.2 mph3.5 kmh 29.74 in1007.1 mb 0.00 in0.0 mm 0.00 in0.0 mm 0.00 in0.0 mm
05:58 AM 62.8°F17.1°C 59.8°F15.4°C 90% 2.2 mph SE3.5 kmh SE 3.1 mph5.0 kmh 29.74 in1007.1 mb 0.00 in0.0 mm 0.00 in0.0 mm 0.00 in0.0 mm
06:08 AM 62.4°F16.9°C 59.8°F15.4°C 91% 0.7 mph S1.1 kmh S 3.1 mph5.0 kmh 29.74 in1007.1 mb 0.00 in0.0 mm 0.00 in0.0 mm 0.00 in0.0 mm
06:18 AM 61.7°F16.5°C 59.4°F15.2°C 92% 3.1 mph SE5.0 kmh SE 6.0 mph9.7 kmh 29.75 in1007.5 mb 0.00 in0.0 mm 0.00 in0.0 mm 0.00 in0.0 mm
06:28 AM 61.7°F16.5°C 60.0°F15.6°C 94% Calm Calm 6.0 mph9.7 kmh 29.75 in1007.5 mb 0.00 in0.0 mm 0.00 in0.0 mm 0.00 in0.0 mm
06:38 AM 61.5°F16.4°C 59.8°F15.4°C 94% 0.7 mph SW1.1 kmh SW 2.2 mph3.5 kmh 29.76 in1007.8 mb 0.00 in0.0 mm 0.00 in0.0 mm 0.00 in0.0 mm
06:48 AM 61.0°F16.1°C 60.1°F15.6°C 97% 3.8 mph SE6.1 kmh SE 6.0 mph9.7 kmh 29.76 in1007.8 mb 0.00 in0.0 mm 0.00 in0.0 mm 0.00 in0.0 mm
06:58 AM 61.9°F16.6°C 60.7°F15.9°C 96% 1.6 mph S2.6 kmh S 6.0 mph9.7 kmh 29.77 in1008.1 mb 0.00 in0.0 mm 0.00 in0.0 mm 0.00 in0.0 mm
07:20 AM 61.9°F16.6°C 60.1°F15.6°C 94% 1.6 mph SSE2.6 kmh SSE 6.0 mph9.7 kmh 29.76 in1007.8 mb 0.00 in0.0 mm 0.00 in0.0 mm 0.00 in0.0 mm
07:40 AM 62.8°F17.1°C 58.5°F14.7°C 86% 2.2 mph S3.5 kmh S 6.0 mph9.7 kmh 29.77 in1008.1 mb 0.00 in0.0 mm 0.00 in0.0 mm 0.00 in0.0 mm
08:00 AM 66.2°F19.0°C 59.8°F15.4°C 80% 3.1 mph SE5.0 kmh SE 5.4 mph8.7 kmh 29.78 in1008.5 mb 0.00 in0.0 mm 0.00 in0.0 mm 0.00 in0.0 mm
08:20 AM 66.0°F18.9°C 59.0°F15.0°C 78% 3.1 mph SE5.0 kmh SE 6.0 mph9.7 kmh 29.78 in1008.5 mb 0.00 in0.0 mm 0.00 in0.0 mm 0.00 in0.0 mm
08:40 AM 68.0°F20.0°C 58.2°F14.6°C 71% 4.5 mph SSE7.2 kmh SSE 9.2 mph14.8 kmh 29.78 in1008.5 mb 0.00 in0.0 mm 0.00 in0.0 mm 0.00 in0.0 mm
09:00 AM 67.8°F19.9°C 56.9°F13.8°C 68% 3.1 mph SE5.0 kmh SE 9.8 mph15.8 kmh 29.79 in1008.8 mb 0.00 in0.0 mm 0.00 in0.0 mm 0.00 in0.0 mm
09:20 AM 69.3°F20.7°C 55.7°F13.2°C 62% 2.2 mph SE3.5 kmh SE 9.2 mph14.8 kmh 29.78 in1008.5 mb 0.00 in0.0 mm 0.00 in0.0 mm 0.00 in0.0 mm
09:40 AM 71.4°F21.9°C 50.7°F10.4°C 48% 4.5 mph SE7.2 kmh SE 11.4 mph18.3 kmh 29.79 in1008.8 mb 0.00 in0.0 mm 0.00 in0.0 mm 0.00 in0.0 mm
10:00 AM 71.4°F21.9°C 40.8°F4.9°C 33% 3.8 mph SE6.1 kmh SE 13.6 mph21.9 kmh 29.79 in1008.8 mb 0.00 in0.0 mm 0.00 in0.0 mm 0.00 in0.0 mm
10:20 AM 73.4°F23.0°C 36.4°F2.4°C 26% 6.0 mph ESE9.7 kmh ESE 13.6 mph21.9 kmh 29.80 in1009.1 mb 0.00 in0.0 mm 0.00 in0.0 mm 0.00 in0.0 mm
10:40 AM 74.8°F23.8°C 33.4°F0.8°C 22% 6.0 mph ESE9.7 kmh ESE 15.2 mph24.5 kmh 29.79 in1008.8 mb 0.00 in0.0 mm 0.00 in0.0 mm 0.00 in0.0 mm
11:00 AM 76.5°F24.7°C 32.4°F0.2°C 20% 5.4 mph SE8.7 kmh SE 12.1 mph19.5 kmh 29.80 in1009.1 mb 0.00 in0.0 mm 0.00 in0.0 mm 0.00 in0.0 mm
11:20 AM 74.8°F23.8°C 31.1°F-0.5°C 20% 6.0 mph ESE9.7 kmh ESE 14.5 mph23.3 kmh 29.79 in1008.8 mb 0.00 in0.0 mm 0.00 in0.0 mm 0.00 in0.0 mm
11:40 AM 75.7°F24.3°C 33.0°F0.6°C 21% 5.4 mph SE8.7 kmh SE 10.7 mph17.2 kmh 29.80 in1009.1 mb 0.00 in0.0 mm 0.00 in0.0 mm 0.00 in0.0 mm
12:00 PM 75.6°F24.2°C 32.9°F0.5°C 21% 6.9 mph E11.1 kmh E 11.4 mph18.3 kmh 29.79 in1008.8 mb 0.00 in0.0 mm 0.00 in0.0 mm 0.00 in0.0 mm
12:20 PM 76.3°F24.6°C 34.6°F1.4°C 22% 4.5 mph ESE7.2 kmh ESE 11.4 mph18.3 kmh 29.79 in1008.8 mb 0.00 in0.0 mm 0.00 in0.0 mm 0.00 in0.0 mm
12:40 PM 76.1°F24.5°C 32.1°F0.1°C 20% 6.0 mph SE9.7 kmh SE 12.1 mph19.5 kmh 29.80 in1009.1 mb 0.00 in0.0 mm 0.00 in0.0 mm 0.00 in0.0 mm
01:00 PM 77.0°F25.0°C 32.8°F0.4°C 20% 7.6 mph SE12.2 kmh SE 13.0 mph20.9 kmh 29.78 in1008.5 mb 0.00 in0.0 mm 0.00 in0.0 mm 0.00 in0.0 mm
01:20 PM 77.4°F25.2°C 33.1°F0.6°C 20% 4.5 mph SE7.2 kmh SE 8.3 mph13.4 kmh 29.79 in1008.8 mb 0.00 in0.0 mm 0.00 in0.0 mm 0.00 in0.0 mm
01:40 PM 78.4°F25.8°C 32.7°F0.4°C 19% 9.2 mph SE14.8 kmh SE 13.0 mph20.9 kmh 29.77 in1008.1 mb 0.00 in0.0 mm 0.00 in0.0 mm 0.00 in0.0 mm
02:00 PM 78.6°F25.9°C 32.9°F0.5°C 19% 2.2 mph S3.5 kmh S 10.7 mph17.2 kmh 29.78 in1008.5 mb 0.00 in0.0 mm 0.00 in0.0 mm 0.00 in0.0 mm
02:20 PM 80.1°F26.7°C 31.3°F-0.4°C 17% 5.4 mph SSE8.7 kmh SSE 10.7 mph17.2 kmh 29.78 in1008.5 mb 0.00 in0.0 mm 0.00 in0.0 mm 0.00 in0.0 mm
02:40 PM 81.5°F27.5°C 29.4°F-1.4°C 15% 5.4 mph SSW8.7 kmh SSW 13.0 mph20.9 kmh 29.77 in1008.1 mb 0.00 in0.0 mm 0.00 in0.0 mm 0.00 in0.0 mm
03:00 PM 80.2°F26.8°C 35.5°F1.9°C 20% 1.6 mph ESE2.6 kmh ESE 10.7 mph17.2 kmh 29.76 in1007.8 mb 0.00 in0.0 mm 0.00 in0.0 mm 0.00 in0.0 mm
03:20 PM 80.6°F27.0°C 35.8°F2.1°C 20% 5.4 mph S8.7 kmh S 13.6 mph21.9 kmh 29.76 in1007.8 mb 0.00 in0.0 mm 0.00 in0.0 mm 0.00 in0.0 mm
03:40 PM 78.1°F25.6°C 35.0°F1.7°C 21% 6.0 mph S9.7 kmh S 12.1 mph19.5 kmh 29.77 in1008.1 mb 0.00 in0.0 mm 0.00 in0.0 mm 0.00 in0.0 mm
04:00 PM 78.6°F25.9°C 32.9°F0.5°C 19% 6.9 mph SSW11.1 kmh SSW 16.8 mph27.0 kmh 29.76 in1007.8 mb 0.00 in0.0 mm 0.00 in0.0 mm 0.00 in0.0 mm
04:20 PM 78.6°F25.9°C 30.1°F-1.1°C 17% 6.0 mph SSE9.7 kmh SSE 13.6 mph21.9 kmh 29.77 in1008.1 mb 0.00 in0.0 mm 0.00 in0.0 mm 0.00 in0.0 mm
04:40 PM 78.6°F25.9°C 30.1°F-1.1°C 17% 8.3 mph SE13.4 kmh SE 13.0 mph20.9 kmh 29.77 in1008.1 mb 0.00 in0.0 mm 0.00 in0.0 mm 0.00 in0.0 mm
05:00 PM 79.9°F26.6°C 37.6°F3.1°C 22% 3.8 mph S6.1 kmh S 12.1 mph19.5 kmh 29.78 in1008.5 mb 0.00 in0.0 mm 0.00 in0.0 mm 0.00 in0.0 mm
05:20 PM 78.6°F25.9°C 36.6°F2.6°C 22% 5.4 mph S8.7 kmh S 10.7 mph17.2 kmh 29.80 in1009.1 mb 0.00 in0.0 mm 0.00 in0.0 mm 0.00 in0.0 mm
05:40 PM 77.4°F25.2°C 40.8°F4.9°C 27% 4.5 mph SSE7.2 kmh SSE 10.7 mph17.2 kmh 29.81 in1009.5 mb 0.00 in0.0 mm 0.00 in0.0 mm 0.00 in0.0 mm
06:00 PM 78.3°F25.7°C 44.3°F6.8°C 30% 3.1 mph SE5.0 kmh SE 9.8 mph15.8 kmh 29.82 in1009.8 mb 0.00 in0.0 mm 0.00 in0.0 mm 0.00 in0.0 mm
06:20 PM 74.5°F23.6°C 44.3°F6.8°C 34% 6.0 mph SSE9.7 kmh SSE 11.4 mph18.3 kmh 29.82 in1009.8 mb 0.00 in0.0 mm 0.00 in0.0 mm 0.00 in0.0 mm
06:40 PM 73.2°F22.9°C 47.4°F8.6°C 40% 1.6 mph SSW2.6 kmh SSW 7.6 mph12.2 kmh 29.84 in1010.5 mb 0.00 in0.0 mm 0.00 in0.0 mm 0.00 in0.0 mm
07:00 PM 71.1°F21.7°C 50.4°F10.2°C 48% 2.2 mph S3.5 kmh S 5.4 mph8.7 kmh 29.85 in1010.8 mb 0.00 in0.0 mm 0.00 in0.0 mm 0.00 in0.0 mm
07:20 PM 69.6°F20.9°C 51.7°F10.9°C 53% 2.2 mph SSW3.5 kmh SSW 8.3 mph13.4 kmh 29.85 in1010.8 mb 0.00 in0.0 mm 0.00 in0.0 mm 0.00 in0.0 mm
07:40 PM 68.9°F20.5°C 52.1°F11.2°C 55% 0.7 mph SSW1.1 kmh SSW 7.6 mph12.2 kmh 29.87 in1011.5 mb 0.00 in0.0 mm 0.00 in0.0 mm 0.00 in0.0 mm
08:00 PM 67.1°F19.5°C 52.3°F11.3°C 59% 2.2 mph SSW3.5 kmh SSW 3.8 mph6.1 kmh 29.89 in1012.2 mb 0.00 in0.0 mm 0.00 in0.0 mm 0.00 in0.0 mm
08:20 PM 67.1°F19.5°C 51.4°F10.8°C 57% 0.7 mph S1.1 kmh S 4.5 mph7.2 kmh 29.91 in1012.9 mb 0.00 in0.0 mm 0.00 in0.0 mm 0.00 in0.0 mm
08:40 PM 66.4°F19.1°C 51.6°F10.9°C 59% 1.6 mph S2.6 kmh S 6.9 mph11.1 kmh 29.93 in1013.5 mb 0.00 in0.0 mm 0.00 in0.0 mm 0.00 in0.0 mm
09:00 PM 66.0°F18.9°C 52.6°F11.4°C 62% 2.2 mph SSW3.5 kmh SSW 6.0 mph9.7 kmh 29.94 in1013.9 mb 0.00 in0.0 mm 0.00 in0.0 mm 0.00 in0.0 mm
09:20 PM 65.8°F18.8°C 52.9°F11.6°C 63% 4.5 mph S7.2 kmh S 9.2 mph14.8 kmh 29.96 in1014.6 mb 0.00 in0.0 mm 0.00 in0.0 mm 0.00 in0.0 mm
09:40 PM 64.2°F17.9°C 52.6°F11.4°C 66% 2.2 mph S3.5 kmh S 6.9 mph11.1 kmh 29.97 in1014.9 mb 0.00 in0.0 mm 0.00 in0.0 mm 0.00 in0.0 mm
10:00 PM 64.2°F17.9°C 53.4°F11.9°C 68% 1.6 mph S2.6 kmh S 7.6 mph12.2 kmh 29.98 in1015.2 mb 0.00 in0.0 mm 0.00 in0.0 mm 0.00 in0.0 mm
10:20 PM 63.1°F17.3°C 53.2°F11.8°C 70% 2.2 mph SSW3.5 kmh SSW 5.4 mph8.7 kmh 29.99 in1015.6 mb 0.00 in0.0 mm 0.00 in0.0 mm 0.00 in0.0 mm
10:40 PM 63.0°F17.2°C 53.8°F12.1°C 72% 1.6 mph SSE2.6 kmh SSE 6.0 mph9.7 kmh 30.00 in1015.9 mb 0.00 in0.0 mm 0.00 in0.0 mm 0.00 in0.0 mm
10:47 PM 62.8°F17.1°C 54.0°F12.2°C 73% 2.2 mph S3.5 kmh S 5.3 mph8.5 kmh 30.00 in1015.9 mb 0.00 in0.0 mm 0.00 in0.0 mm 0.00 in0.0 mm
10:57 PM 62.2°F16.8°C 53.8°F12.1°C 74% 3.1 mph SE5.0 kmh SE 6.0 mph9.7 kmh 30.00 in1015.9 mb 0.00 in0.0 mm 0.00 in0.0 mm 0.00 in0.0 mm
11:07 PM 62.1°F16.7°C 54.0°F12.2°C 75% 2.2 mph SE3.5 kmh SE 6.9 mph11.1 kmh 30.01 in1016.3 mb 0.00 in0.0 mm 0.00 in0.0 mm 0.00 in0.0 mm
11:17 PM 62.6°F17.0°C 54.6°F12.6°C 75% 1.6 mph SW2.6 kmh SW 6.9 mph11.1 kmh 30.01 in1016.3 mb 0.00 in0.0 mm 0.00 in0.0 mm 0.00 in0.0 mm
11:27 PM 61.3°F16.3°C 53.3°F11.8°C 75% 2.2 mph S3.5 kmh S 4.5 mph7.2 kmh 30.02 in1016.6 mb 0.00 in0.0 mm 0.00 in0.0 mm 0.00 in0.0 mm
11:37 PM 61.0°F16.1°C 53.0°F11.7°C 75% 0.7 mph SW1.1 kmh SW 4.5 mph7.2 kmh 30.03 in1016.9 mb 0.00 in0.0 mm 0.00 in0.0 mm 0.00 in0.0 mm
11:47 PM 60.8°F16.0°C 53.2°F11.8°C 76% 1.6 mph S2.6 kmh S 2.2 mph3.5 kmh 30.04 in1017.3 mb 0.00 in0.0 mm 0.00 in0.0 mm 0.00 in0.0 mm
11:57 PM 60.6°F15.9°C 53.0°F11.7°C 76% 1.6 mph SE2.6 kmh SE 3.1 mph5.0 kmh 30.03 in1016.9 mb 0.00 in0.0 mm 0.00 in0.0 mm 0.00 in0.0 mm